Time;durP1;ratioP1;P1;durP2;ratioP2;P2;SDS_P1;SDS_P2;PMS_P1;PMS_P2;Temp;Humidity;BMP_temperature;BMP_pressure;BME280_temperature;BME280_humidity;BME280_pressure;Samples;Min_cycle;Max_cycle;Signal;HPM_P1;HPM_P2
2021/12/28 00:01:01;;;;;;;47.50;26.83;;;;;;;;;;4973086;28;20180;-84
2021/12/28 00:03:27;;;;;;;43.75;26.25;;;;;;;;;;4967772;28;20062;-84
2021/12/28 00:05:53;;;;;;;42.58;26.88;;;;;;;;;;4970530;28;20098;-83
2021/12/28 00:08:19;;;;;;;45.72;28.35;;;;;;;;;;4968606;28;20093;-83
2021/12/28 00:10:46;;;;;;;45.03;26.83;;;;;;;;;;4967103;28;20170;-83
2021/12/28 00:13:13;;;;;;;50.25;28.17;;;;;;;;;;4966928;28;20046;-82
2021/12/28 00:15:49;;;;;;;46.75;27.75;;;;;;;;;;4967129;28;20494;-82
2021/12/28 00:18:15;;;;;;;51.60;28.52;;;;;;;;;;4967594;28;20134;-83
2021/12/28 00:20:43;;;;;;;42.60;26.95;;;;;;;;;;4969229;28;20043;-83
2021/12/28 00:23:19;;;;;;;70.32;32.97;;;;;;;;;;4963120;28;20053;-84
2021/12/28 00:25:50;;;;;;;47.00;27.50;;;;;;;;;;4967217;28;20406;-84
2021/12/28 00:28:16;;;;;;;42.33;27.35;;;;;;;;;;4970147;28;20077;-83
2021/12/28 00:30:43;;;;;;;46.58;27.48;;;;;;;;;;4965704;28;20043;-83
2021/12/28 00:33:09;;;;;;;57.15;29.52;;;;;;;;;;4966782;28;20059;-83
2021/12/28 00:35:39;;;;;;;52.47;28.77;;;;;;;;;;4969033;28;20394;-84
2021/12/28 00:38:06;;;;;;;58.03;30.25;;;;;;;;;;4963919;28;20043;-84
2021/12/28 00:40:32;;;;;;;57.72;29.40;;;;;;;;;;4967795;28;20050;-84
2021/12/28 00:42:58;;;;;;;51.33;29.33;;;;;;;;;;4972705;28;20934;-84
2021/12/28 00:45:24;;;;;;;52.67;28.92;;;;;;;;;;4963916;28;20047;-83
2021/12/28 00:47:50;;;;;;;53.10;30.83;;;;;;;;;;4963888;28;20051;-84
2021/12/28 00:50:17;;;;;;;61.08;30.63;;;;;;;;;;4964111;28;20186;-84
2021/12/28 00:52:44;;;;;;;51.95;29.73;;;;;;;;;;4968013;28;20566;-84
2021/12/28 00:55:10;;;;;;;52.13;29.67;;;;;;;;;;4969253;28;20042;-84
2021/12/28 00:57:36;;;;;;;55.25;29.88;;;;;;;;;;4968018;28;20063;-84
2021/12/28 01:00:07;;;;;;;63.38;31.27;;;;;;;;;;4968340;28;20411;-83
2021/12/28 01:02:33;;;;;;;86.45;33.95;;;;;;;;;;4970112;28;20046;-84
2021/12/28 01:04:59;;;;;;;62.80;30.50;;;;;;;;;;4968585;28;20035;-84
2021/12/28 01:07:25;;;;;;;87.80;32.75;;;;;;;;;;4968660;28;20109;-83
2021/12/28 01:09:51;;;;;;;68.05;31.60;;;;;;;;;;4970174;28;20046;-82
2021/12/28 01:12:17;;;;;;;64.57;32.45;;;;;;;;;;4965549;28;20532;-84
2021/12/28 01:14:43;;;;;;;65.40;31.42;;;;;;;;;;4966079;28;20162;-83
2021/12/28 01:17:09;;;;;;;77.60;32.10;;;;;;;;;;4969237;28;20055;-83
2021/12/28 01:19:35;;;;;;;67.15;32.88;;;;;;;;;;4969424;28;20043;-84
2021/12/28 01:22:01;;;;;;;72.22;33.22;;;;;;;;;;4968067;28;20093;-84
2021/12/28 01:24:28;;;;;;;88.65;34.63;;;;;;;;;;4967547;28;20045;-84
2021/12/28 01:26:54;;;;;;;72.72;33.08;;;;;;;;;;4964436;28;20411;-84
2021/12/28 01:29:20;;;;;;;72.15;32.05;;;;;;;;;;4967694;28;20059;-84
2021/12/28 01:31:46;;;;;;;110.47;36.58;;;;;;;;;;4968220;28;20046;-84
2021/12/28 01:34:12;;;;;;;76.18;33.17;;;;;;;;;;4963756;28;20043;-84
2021/12/28 01:36:38;;;;;;;64.90;31.80;;;;;;;;;;4964869;28;21791;-84
2021/12/28 01:39:06;;;;;;;76.75;32.00;;;;;;;;;;4965813;28;20086;-84
2021/12/28 01:41:32;;;;;;;80.15;32.63;;;;;;;;;;4969375;28;20053;-83
2021/12/28 01:43:59;;;;;;;77.00;33.92;;;;;;;;;;4965531;28;20093;-84
2021/12/28 01:46:25;;;;;;;86.90;31.23;;;;;;;;;;4968134;28;20043;-84
2021/12/28 01:48:51;;;;;;;78.90;32.33;;;;;;;;;;4964593;28;20402;-85
2021/12/28 01:51:19;;;;;;;86.43;34.05;;;;;;;;;;4968560;28;20415;-84
2021/12/28 01:53:46;;;;;;;72.88;32.70;;;;;;;;;;4963675;28;20125;-84
2021/12/28 01:56:13;;;;;;;72.47;31.05;;;;;;;;;;4968245;28;20043;-84
2021/12/28 01:58:40;;;;;;;83.45;31.52;;;;;;;;;;4965321;28;20062;-84
2021/12/28 02:01:07;;;;;;;120.63;36.72;;;;;;;;;;4966312;28;20137;-84
2021/12/28 02:03:34;;;;;;;72.75;32.20;;;;;;;;;;4966418;28;20109;-84
2021/12/28 02:06:00;;;;;;;76.70;31.13;;;;;;;;;;4968285;28;20124;-84
2021/12/28 02:08:26;;;;;;;73.13;31.17;;;;;;;;;;4972267;28;20058;-84
2021/12/28 02:10:53;;;;;;;67.80;29.67;;;;;;;;;;4967501;28;20482;-84
2021/12/28 02:13:20;;;;;;;96.10;32.20;;;;;;;;;;4965556;28;20058;-84
2021/12/28 02:15:46;;;;;;;141.82;36.70;;;;;;;;;;4964419;28;20058;-84
2021/12/28 02:18:13;;;;;;;72.32;30.40;;;;;;;;;;4973095;28;20127;-84
2021/12/28 02:20:39;;;;;;;74.50;30.63;;;;;;;;;;4967308;28;20122;-85
2021/12/28 02:23:06;;;;;;;87.90;32.22;;;;;;;;;;4970081;28;20483;-84
2021/12/28 02:25:32;;;;;;;72.72;30.02;;;;;;;;;;4968724;28;20438;-85
2021/12/28 02:27:59;;;;;;;67.55;29.02;;;;;;;;;;4969804;28;20039;-85
2021/12/28 02:30:25;;;;;;;100.95;32.28;;;;;;;;;;4968568;28;20043;-85
2021/12/28 02:32:52;;;;;;;69.45;30.05;;;;;;;;;;4971043;28;20134;-84
2021/12/28 02:35:20;;;;;;;63.65;29.55;;;;;;;;;;4971180;28;20049;-84
2021/12/28 02:37:47;;;;;;;79.38;31.60;;;;;;;;;;4966389;28;20046;-85
2021/12/28 02:40:14;;;;;;;66.70;30.13;;;;;;;;;;4969508;28;20501;-84
2021/12/28 02:42:40;;;;;;;71.13;28.45;;;;;;;;;;4973186;28;20486;-85
2021/12/28 02:45:12;;;;;;;67.88;29.95;;;;;;;;;;4970285;28;20051;-84
2021/12/28 02:47:39;;;;;;;85.93;30.13;;;;;;;;;;4968221;28;20053;-84
2021/12/28 02:50:09;;;;;;;67.22;30.38;;;;;;;;;;4970041;28;20567;-84
2021/12/28 02:52:36;;;;;;;79.53;30.40;;;;;;;;;;4969686;28;20101;-85
2021/12/28 02:55:03;;;;;;;69.30;29.10;;;;;;;;;;4972509;28;20470;-84
2021/12/28 02:57:29;;;;;;;62.45;29.88;;;;;;;;;;4967392;28;20438;-84
2021/12/28 02:59:55;;;;;;;78.45;31.00;;;;;;;;;;4968829;28;20062;-84
2021/12/28 03:02:21;;;;;;;71.72;29.85;;;;;;;;;;4968103;28;20066;-85
2021/12/28 03:04:47;;;;;;;82.13;32.47;;;;;;;;;;4969159;28;20411;-85
2021/12/28 03:07:13;;;;;;;72.35;31.33;;;;;;;;;;4969381;28;20051;-84
2021/12/28 03:09:39;;;;;;;65.45;29.33;;;;;;;;;;4970948;28;20113;-85
2021/12/28 03:12:06;;;;;;;65.07;30.02;;;;;;;;;;4973175;28;20057;-84
2021/12/28 03:14:32;;;;;;;70.10;28.75;;;;;;;;;;4971103;28;20043;-85
2021/12/28 03:16:58;;;;;;;75.80;28.80;;;;;;;;;;4969249;28;20043;-85
2021/12/28 03:19:24;;;;;;;67.15;28.45;;;;;;;;;;4970978;28;20038;-85
2021/12/28 03:21:50;;;;;;;77.65;29.83;;;;;;;;;;4969920;28;20053;-85
2021/12/28 03:24:17;;;;;;;69.40;28.13;;;;;;;;;;4970166;28;20053;-84
2021/12/28 03:26:44;;;;;;;66.30;28.50;;;;;;;;;;4969589;28;20474;-85
2021/12/28 03:29:10;;;;;;;71.60;29.70;;;;;;;;;;4969949;28;20047;-85
2021/12/28 03:31:36;;;;;;;76.68;30.17;;;;;;;;;;4970031;28;20571;-86
2021/12/28 03:34:02;;;;;;;62.65;28.15;;;;;;;;;;4969035;28;20062;-85
2021/12/28 03:36:30;;;;;;;62.45;28.35;;;;;;;;;;4973292;28;20053;-85
2021/12/28 03:38:58;;;;;;;69.75;30.00;;;;;;;;;;4968645;28;20478;-85
2021/12/28 03:41:25;;;;;;;62.00;27.95;;;;;;;;;;4970696;28;20085;-85
2021/12/28 03:43:52;;;;;;;63.20;28.75;;;;;;;;;;4969141;28;20098;-85
2021/12/28 03:46:18;;;;;;;66.22;28.38;;;;;;;;;;4969083;28;20042;-85
2021/12/28 03:48:44;;;;;;;64.45;28.65;;;;;;;;;;4967278;28;20046;-85
2021/12/28 03:51:10;;;;;;;64.00;27.05;;;;;;;;;;4967704;28;20054;-85
2021/12/28 03:53:36;;;;;;;61.75;27.90;;;;;;;;;;4967678;28;20502;-85
2021/12/28 03:56:04;;;;;;;69.35;29.33;;;;;;;;;;4970160;28;20487;-85
2021/12/28 03:58:30;;;;;;;73.22;30.52;;;;;;;;;;4971487;28;20058;-85
2021/12/28 04:00:56;;;;;;;64.22;30.10;;;;;;;;;;4969124;28;20054;-85
2021/12/28 04:03:22;;;;;;;82.53;30.52;;;;;;;;;;4964990;28;20049;-84
2021/12/28 04:05:48;;;;;;;66.00;29.38;;;;;;;;;;4969047;28;20749;-85
2021/12/28 04:08:22;;;;;;;61.78;30.50;;;;;;;;;;4969563;28;20051;-85
2021/12/28 04:10:55;;;;;;;74.85;31.10;;;;;;;;;;4965151;28;20125;-84
2021/12/28 04:13:22;;;;;;;76.30;30.52;;;;;;;;;;4971689;28;20468;-84
2021/12/28 04:15:48;;;;;;;64.10;27.95;;;;;;;;;;4973178;28;20137;-84
2021/12/28 04:18:15;;;;;;;67.38;28.80;;;;;;;;;;4968579;28;20055;-85
2021/12/28 04:20:41;;;;;;;65.40;30.40;;;;;;;;;;4967562;28;20495;-86
2021/12/28 04:23:07;;;;;;;72.90;28.60;;;;;;;;;;4971261;28;20138;-85
2021/12/28 04:25:33;;;;;;;70.15;29.77;;;;;;;;;;4968934;28;20137;-85
2021/12/28 04:27:59;;;;;;;61.20;28.90;;;;;;;;;;4969352;28;20062;-85
2021/12/28 04:30:25;;;;;;;76.22;29.33;;;;;;;;;;4968135;28;20073;-85
2021/12/28 04:32:51;;;;;;;63.70;29.60;;;;;;;;;;4969056;28;20049;-85
2021/12/28 04:35:17;;;;;;;59.88;29.23;;;;;;;;;;4976223;28;20042;-85
2021/12/28 04:37:44;;;;;;;71.10;29.90;;;;;;;;;;4971661;28;20063;-86
2021/12/28 04:40:11;;;;;;;59.30;28.70;;;;;;;;;;4969065;28;20049;-85
2021/12/28 04:42:38;;;;;;;65.15;28.55;;;;;;;;;;4968623;28;20069;-85
2021/12/28 04:45:06;;;;;;;66.43;29.45;;;;;;;;;;4968251;28;20542;-84
2021/12/28 04:47:32;;;;;;;66.18;27.83;;;;;;;;;;4983764;28;20074;-85
2021/12/28 04:49:59;;;;;;;66.43;27.50;;;;;;;;;;4968886;28;20045;-85
2021/12/28 04:52:25;;;;;;;55.40;26.92;;;;;;;;;;4966995;28;20073;-85
2021/12/28 04:54:51;;;;;;;54.50;26.90;;;;;;;;;;4968051;28;20039;-85
2021/12/28 04:57:17;;;;;;;58.85;27.80;;;;;;;;;;4966218;28;20069;-85
2021/12/28 04:59:43;;;;;;;51.70;26.40;;;;;;;;;;4969494;28;20079;-85
2021/12/28 05:02:09;;;;;;;58.05;27.60;;;;;;;;;;4969030;28;20043;-85
2021/12/28 05:04:35;;;;;;;63.30;26.85;;;;;;;;;;4970181;28;20043;-85
2021/12/28 05:07:01;;;;;;;55.00;26.65;;;;;;;;;;4965818;28;20057;-85
2021/12/28 05:09:27;;;;;;;54.03;25.17;;;;;;;;;;4968340;28;20050;-85
2021/12/28 05:11:53;;;;;;;59.60;27.20;;;;;;;;;;4971565;28;20429;-85
2021/12/28 05:14:20;;;;;;;62.35;27.80;;;;;;;;;;4969753;28;20506;-84
2021/12/28 05:16:46;;;;;;;59.00;27.67;;;;;;;;;;4969665;28;20043;-85
2021/12/28 05:19:14;;;;;;;60.65;27.95;;;;;;;;;;4968387;28;20404;-85
2021/12/28 05:21:40;;;;;;;65.03;28.05;;;;;;;;;;4975874;28;20046;-85
2021/12/28 05:24:06;;;;;;;58.63;27.63;;;;;;;;;;4968528;28;20125;-85
2021/12/28 05:26:32;;;;;;;52.03;26.25;;;;;;;;;;4966730;28;20090;-85
2021/12/28 05:28:58;;;;;;;53.63;26.23;;;;;;;;;;4967467;28;20039;-85
2021/12/28 05:31:25;;;;;;;49.55;24.85;;;;;;;;;;4968560;28;20098;-85
2021/12/28 05:33:52;;;;;;;52.25;25.90;;;;;;;;;;4965282;28;20486;-86
2021/12/28 05:36:18;;;;;;;51.65;26.52;;;;;;;;;;4963694;28;20138;-85
2021/12/28 05:38:44;;;;;;;55.25;25.67;;;;;;;;;;4966489;28;20478;-85
2021/12/28 05:41:10;;;;;;;53.65;24.92;;;;;;;;;;4969104;28;20046;-85
2021/12/28 05:43:36;;;;;;;46.88;25.42;;;;;;;;;;4966709;28;20383;-85
2021/12/28 05:46:02;;;;;;;51.65;24.73;;;;;;;;;;4965623;28;20043;-85
2021/12/28 05:48:28;;;;;;;49.22;24.17;;;;;;;;;;4983358;28;20053;-85
2021/12/28 05:50:54;;;;;;;46.47;23.73;;;;;;;;;;4971577;28;20548;-84
2021/12/28 05:53:20;;;;;;;44.65;22.77;;;;;;;;;;4966739;28;20051;-84
2021/12/28 05:55:47;;;;;;;50.97;24.40;;;;;;;;;;4968302;28;20116;-84
2021/12/28 05:58:13;;;;;;;44.92;24.30;;;;;;;;;;4969540;28;20058;-85
2021/12/28 06:00:39;;;;;;;48.30;23.67;;;;;;;;;;4975009;28;20058;-85
2021/12/28 06:03:05;;;;;;;43.83;22.95;;;;;;;;;;4968428;28;20043;-85
2021/12/28 06:05:31;;;;;;;43.25;23.60;;;;;;;;;;4972849;28;20074;-86
2021/12/28 06:07:57;;;;;;;41.25;22.05;;;;;;;;;;4971069;28;20042;-85
2021/12/28 06:10:23;;;;;;;49.92;21.90;;;;;;;;;;4963313;28;20114;-85
2021/12/28 06:12:49;;;;;;;43.95;22.50;;;;;;;;;;4967577;28;20074;-85
2021/12/28 06:15:16;;;;;;;42.00;21.77;;;;;;;;;;4967394;28;20047;-85
2021/12/28 06:17:42;;;;;;;40.75;20.17;;;;;;;;;;4973396;28;20098;-86
2021/12/28 06:20:08;;;;;;;35.75;20.52;;;;;;;;;;4971541;28;20042;-85
2021/12/28 06:22:34;;;;;;;40.92;20.00;;;;;;;;;;4970016;28;20130;-85
2021/12/28 06:25:00;;;;;;;47.80;21.38;;;;;;;;;;4970547;28;20053;-85
2021/12/28 06:27:26;;;;;;;42.20;21.25;;;;;;;;;;4969393;28;20098;-85
2021/12/28 06:29:52;;;;;;;39.45;20.13;;;;;;;;;;4971352;28;20043;-86
2021/12/28 06:32:18;;;;;;;37.15;19.00;;;;;;;;;;4967389;28;20418;-85
2021/12/28 06:34:44;;;;;;;36.72;20.38;;;;;;;;;;4969686;28;20121;-86
2021/12/28 06:37:10;;;;;;;36.83;19.17;;;;;;;;;;4968755;28;20046;-85
2021/12/28 06:39:36;;;;;;;32.55;17.55;;;;;;;;;;4969498;28;20129;-86
2021/12/28 06:42:03;;;;;;;32.50;18.48;;;;;;;;;;4970837;28;20123;-86
2021/12/28 06:44:29;;;;;;;38.00;18.65;;;;;;;;;;4973061;28;20052;-85
2021/12/28 06:46:55;;;;;;;31.55;17.45;;;;;;;;;;4969478;28;20047;-85
2021/12/28 06:49:21;;;;;;;36.30;19.33;;;;;;;;;;4968935;28;20096;-86
2021/12/28 06:51:47;;;;;;;37.53;18.55;;;;;;;;;;4977650;28;20074;-85
2021/12/28 06:54:14;;;;;;;34.13;17.92;;;;;;;;;;4971533;28;20047;-85
2021/12/28 06:56:40;;;;;;;33.55;17.52;;;;;;;;;;4969941;28;20054;-85
2021/12/28 06:59:06;;;;;;;32.40;16.63;;;;;;;;;;4971318;28;20809;-86
2021/12/28 07:01:32;;;;;;;35.05;17.48;;;;;;;;;;4972151;28;20069;-86
2021/12/28 07:03:58;;;;;;;32.75;17.33;;;;;;;;;;4969085;28;20046;-85
2021/12/28 07:06:26;;;;;;;28.65;16.35;;;;;;;;;;4971708;28;20414;-85
2021/12/28 07:08:53;;;;;;;31.85;16.80;;;;;;;;;;4969355;28;20131;-85
2021/12/28 07:11:19;;;;;;;29.65;16.73;;;;;;;;;;4969798;28;20049;-85
2021/12/28 07:13:45;;;;;;;32.72;17.33;;;;;;;;;;4968770;28;20063;-86
2021/12/28 07:16:12;;;;;;;33.20;17.33;;;;;;;;;;4970804;28;20039;-85
2021/12/28 07:18:38;;;;;;;30.63;15.80;;;;;;;;;;4970668;28;20046;-86
2021/12/28 07:21:04;;;;;;;36.38;17.02;;;;;;;;;;4970643;28;20078;-85
2021/12/28 07:23:31;;;;;;;24.20;15.55;;;;;;;;;;4971030;28;20058;-85
2021/12/28 07:25:57;;;;;;;34.22;15.45;;;;;;;;;;4964961;28;20046;-84
2021/12/28 07:28:23;;;;;;;29.05;16.50;;;;;;;;;;4969355;28;20054;-86
2021/12/28 07:30:50;;;;;;;29.77;14.77;;;;;;;;;;4971265;28;20073;-85
2021/12/28 07:33:16;;;;;;;29.67;15.48;;;;;;;;;;4969449;28;20047;-85
2021/12/28 07:35:42;;;;;;;28.65;15.63;;;;;;;;;;4972361;28;20070;-86
2021/12/28 07:38:08;;;;;;;30.60;15.90;;;;;;;;;;4970095;28;20137;-85
2021/12/28 07:40:34;;;;;;;30.02;15.70;;;;;;;;;;4970406;28;20177;-85
2021/12/28 07:43:00;;;;;;;30.25;14.55;;;;;;;;;;4971297;28;20055;-86
2021/12/28 07:45:26;;;;;;;31.17;15.50;;;;;;;;;;4971174;28;20047;-86
2021/12/28 07:47:52;;;;;;;28.80;14.65;;;;;;;;;;4966956;28;20101;-86
2021/12/28 07:50:19;;;;;;;30.33;14.73;;;;;;;;;;4971104;28;20043;-85
2021/12/28 07:52:46;;;;;;;22.88;12.65;;;;;;;;;;4980713;28;20043;-85
2021/12/28 07:55:13;;;;;;;30.27;15.20;;;;;;;;;;4970093;28;20060;-86
2021/12/28 07:57:40;;;;;;;27.98;14.13;;;;;;;;;;4971218;28;20054;-84
2021/12/28 08:00:11;;;;;;;28.45;15.32;;;;;;;;;;4965438;28;20042;-85
2021/12/28 08:02:37;;;;;;;27.17;14.27;;;;;;;;;;4969356;28;20046;-85
2021/12/28 08:05:03;;;;;;;29.05;15.07;;;;;;;;;;4965248;28;20511;-83
2021/12/28 08:07:29;;;;;;;28.42;15.23;;;;;;;;;;4968569;28;20050;-85
2021/12/28 08:09:55;;;;;;;27.73;15.38;;;;;;;;;;4962738;28;20047;-84
2021/12/28 08:12:21;;;;;;;27.58;14.93;;;;;;;;;;4981644;28;20047;-84
2021/12/28 08:14:47;;;;;;;29.05;15.60;;;;;;;;;;4974589;28;20076;-83
2021/12/28 08:17:13;;;;;;;34.72;15.18;;;;;;;;;;4967486;28;20050;-84
2021/12/28 08:19:39;;;;;;;28.13;15.40;;;;;;;;;;4968130;28;20038;-85
2021/12/28 08:22:05;;;;;;;28.17;15.52;;;;;;;;;;4965976;28;20053;-84
2021/12/28 08:24:33;;;;;;;30.50;15.30;;;;;;;;;;4971097;28;20483;-84
2021/12/28 08:26:59;;;;;;;23.85;14.40;;;;;;;;;;4966854;28;20517;-85
2021/12/28 08:29:25;;;;;;;27.25;14.65;;;;;;;;;;4967743;28;20491;-85
2021/12/28 08:31:52;;;;;;;24.90;14.93;;;;;;;;;;4968337;28;20054;-84
2021/12/28 08:34:18;;;;;;;24.42;14.60;;;;;;;;;;4970051;28;20454;-83
2021/12/28 08:36:44;;;;;;;28.63;14.43;;;;;;;;;;4965389;28;20066;-85
2021/12/28 08:39:10;;;;;;;29.00;14.15;;;;;;;;;;4965674;28;20082;-84
2021/12/28 08:41:36;;;;;;;22.00;13.13;;;;;;;;;;4965306;28;20125;-84
2021/12/28 08:44:02;;;;;;;23.27;12.48;;;;;;;;;;4963632;28;20140;-84
2021/12/28 08:46:29;;;;;;;27.95;13.18;;;;;;;;;;4966378;28;20070;-85
2021/12/28 08:48:55;;;;;;;23.83;13.68;;;;;;;;;;4971515;28;20062;-86
2021/12/28 08:51:21;;;;;;;24.40;13.52;;;;;;;;;;4968318;28;20560;-84
2021/12/28 08:53:47;;;;;;;23.77;13.07;;;;;;;;;;4966213;28;20129;-83
2021/12/28 08:56:14;;;;;;;26.00;13.43;;;;;;;;;;4967923;28;20177;-85
2021/12/28 08:58:40;;;;;;;25.50;13.10;;;;;;;;;;4967403;28;20066;-85
2021/12/28 09:01:06;;;;;;;30.60;13.65;;;;;;;;;;4968883;28;20055;-84
2021/12/28 09:03:32;;;;;;;22.88;12.63;;;;;;;;;;4965999;28;20058;-84
2021/12/28 09:06:00;;;;;;;22.42;13.27;;;;;;;;;;4963580;28;20058;-86
2021/12/28 09:08:26;;;;;;;24.55;13.82;;;;;;;;;;4968692;28;20071;-86
2021/12/28 09:10:52;;;;;;;23.05;12.52;;;;;;;;;;4967216;28;20182;-83
2021/12/28 09:13:19;;;;;;;23.73;13.52;;;;;;;;;;4971578;28;20962;-86
2021/12/28 09:15:45;;;;;;;19.17;13.27;;;;;;;;;;4971028;28;20047;-86
2021/12/28 09:18:11;;;;;;;19.88;13.18;;;;;;;;;;4967544;28;20049;-85
2021/12/28 09:20:37;;;;;;;24.73;13.13;;;;;;;;;;4968527;28;20152;-85
2021/12/28 09:23:03;;;;;;;24.42;12.98;;;;;;;;;;4966791;28;20051;-85
2021/12/28 09:25:29;;;;;;;22.50;13.30;;;;;;;;;;4965304;28;20601;-87
2021/12/28 09:27:56;;;;;;;21.98;12.32;;;;;;;;;;4965186;28;20703;-84
2021/12/28 09:30:22;;;;;;;21.33;12.75;;;;;;;;;;4964484;28;20407;-84
2021/12/28 09:32:48;;;;;;;21.27;12.48;;;;;;;;;;4965783;28;20573;-83
2021/12/28 09:35:14;;;;;;;20.63;12.23;;;;;;;;;;4969905;28;20049;-84
2021/12/28 09:37:40;;;;;;;24.42;13.10;;;;;;;;;;4972619;28;20066;-84
2021/12/28 09:40:08;;;;;;;20.67;12.80;;;;;;;;;;4971112;28;20388;-84
2021/12/28 09:42:34;;;;;;;19.88;11.50;;;;;;;;;;4968680;28;20054;-84
2021/12/28 09:45:00;;;;;;;23.45;12.13;;;;;;;;;;4960997;28;20046;-82
2021/12/28 09:47:27;;;;;;;22.45;11.95;;;;;;;;;;4966984;28;20046;-82
2021/12/28 09:49:53;;;;;;;19.83;11.68;;;;;;;;;;4968536;28;20372;-81
2021/12/28 09:52:19;;;;;;;22.55;12.35;;;;;;;;;;4969264;28;20487;-81
2021/12/28 09:54:45;;;;;;;20.30;12.02;;;;;;;;;;4969236;28;20068;-81
2021/12/28 09:57:16;;;;;;;23.42;12.90;;;;;;;;;;4969011;28;20062;-81
2021/12/28 09:59:43;;;;;;;25.27;12.93;;;;;;;;;;4973772;28;20046;-81
2021/12/28 10:02:10;;;;;;;19.63;11.95;;;;;;;;;;4972402;28;20125;-82
2021/12/28 10:04:56;;;;;;;25.00;12.77;;;;;;;;;;4970630;28;20094;-82
2021/12/28 10:07:23;;;;;;;19.35;12.35;;;;;;;;;;4974932;28;20061;-81
2021/12/28 10:09:50;;;;;;;19.13;12.00;;;;;;;;;;4970996;28;20053;-81
2021/12/28 10:12:29;;;;;;;19.83;11.85;;;;;;;;;;4970047;28;20511;-81
2021/12/28 10:14:56;;;;;;;24.30;13.25;;;;;;;;;;4965412;28;20050;-80
2021/12/28 10:17:26;;;;;;;21.25;11.82;;;;;;;;;;4965100;28;20054;-81
2021/12/28 10:19:52;;;;;;;25.10;13.32;;;;;;;;;;4960862;28;20101;-80
2021/12/28 10:22:30;;;;;;;21.30;12.13;;;;;;;;;;4961879;28;20051;-82
2021/12/28 10:24:58;;;;;;;22.83;13.15;;;;;;;;;;4968397;28;20071;-83
2021/12/28 10:27:26;;;;;;;20.02;12.35;;;;;;;;;;4971352;28;20097;-82
2021/12/28 10:29:53;;;;;;;20.10;12.38;;;;;;;;;;4968990;28;20089;-82
2021/12/28 10:32:24;;;;;;;17.48;11.40;;;;;;;;;;4962188;28;20057;-82
2021/12/28 10:34:53;;;;;;;17.70;11.02;;;;;;;;;;4967019;28;20043;-81
2021/12/28 10:37:20;;;;;;;20.60;12.32;;;;;;;;;;4969569;28;20051;-81
2021/12/28 10:39:47;;;;;;;17.30;11.48;;;;;;;;;;4969258;28;20054;-83
2021/12/28 10:42:32;;;;;;;15.52;11.15;;;;;;;;;;4972179;28;20039;-83
2021/12/28 10:44:59;;;;;;;16.88;11.68;;;;;;;;;;4986080;28;20134;-82
2021/12/28 10:47:25;;;;;;;15.80;10.27;;;;;;;;;;4970705;28;20049;-82
2021/12/28 10:49:51;;;;;;;14.82;11.10;;;;;;;;;;4971714;28;20043;-82
2021/12/28 10:52:26;;;;;;;16.67;10.93;;;;;;;;;;4974890;28;20055;-82
2021/12/28 10:55:12;;;;;;;13.18;9.27;;;;;;;;;;4967819;28;20067;-83
2021/12/28 10:57:40;;;;;;;14.27;9.30;;;;;;;;;;4971108;28;20043;-83
2021/12/28 11:00:44;;;;;;;16.38;10.18;;;;;;;;;;4973200;28;20055;-84
2021/12/28 11:03:23;;;;;;;13.35;9.55;;;;;;;;;;4977569;28;20097;-82
2021/12/28 11:05:50;;;;;;;13.02;9.52;;;;;;;;;;4991641;28;20046;-82
2021/12/28 11:08:17;;;;;;;13.85;9.50;;;;;;;;;;4981519;28;20063;-83
2021/12/28 11:10:46;;;;;;;14.00;9.93;;;;;;;;;;4971859;28;20496;-79
2021/12/28 11:13:13;;;;;;;11.57;9.18;;;;;;;;;;4969355;28;20084;-81
2021/12/28 11:15:41;;;;;;;11.63;8.73;;;;;;;;;;4974569;28;20047;-82
2021/12/28 11:18:16;;;;;;;10.23;8.65;;;;;;;;;;4968859;28;20431;-82
2021/12/28 11:20:43;;;;;;;10.55;8.32;;;;;;;;;;4972098;28;20069;-81
2021/12/28 11:23:16;;;;;;;10.15;8.05;;;;;;;;;;4966453;28;20050;-80
2021/12/28 11:25:42;;;;;;;12.30;8.80;;;;;;;;;;4970649;28;20081;-81
2021/12/28 11:28:19;;;;;;;9.75;7.68;;;;;;;;;;4970812;28;20506;-82
2021/12/28 11:31:03;;;;;;;12.40;8.40;;;;;;;;;;4974451;28;20373;-83
2021/12/28 11:33:29;;;;;;;;;;;;;;;;;;4967642;28;20042;-76
2021/12/28 11:35:55;;;;;;;10.63;7.85;;;;;;;;;;4971004;28;19941;-82
2021/12/28 11:38:21;;;;;;;11.10;7.78;;;;;;;;;;4973548;28;20053;-82
2021/12/28 11:40:47;;;;;;;10.07;8.20;;;;;;;;;;4971983;28;20053;-82
2021/12/28 11:43:13;;;;;;;10.50;8.10;;;;;;;;;;4970671;28;20051;-82
2021/12/28 11:45:39;;;;;;;11.70;8.45;;;;;;;;;;4972944;28;20065;-82
2021/12/28 11:48:05;;;;;;;10.82;8.70;;;;;;;;;;4974212;28;20050;-82
2021/12/28 11:50:32;;;;;;;10.18;8.18;;;;;;;;;;4975480;28;20050;-81
2021/12/28 11:52:57;;;;;;;11.52;8.70;;;;;;;;;;4969962;28;20102;-82
2021/12/28 11:55:24;;;;;;;11.10;8.25;;;;;;;;;;4967269;28;20058;-82
2021/12/28 11:57:51;;;;;;;10.57;7.93;;;;;;;;;;4968182;28;20059;-82
2021/12/28 12:00:19;;;;;;;10.90;8.63;;;;;;;;;;4966311;28;20046;-82
2021/12/28 12:02:47;;;;;;;10.68;8.70;;;;;;;;;;4968754;28;20042;-82
2021/12/28 12:05:24;;;;;;;11.25;8.63;;;;;;;;;;4969986;28;20051;-82
2021/12/28 12:08:07;;;;;;;10.65;8.18;;;;;;;;;;4969182;28;20054;-82
2021/12/28 12:10:35;;;;;;;10.23;8.27;;;;;;;;;;4971334;28;20109;-82
2021/12/28 12:13:22;;;;;;;12.27;7.88;;;;;;;;;;4966351;28;20043;-82
2021/12/28 12:15:53;;;;;;;9.55;7.95;;;;;;;;;;4986345;28;20093;-84
2021/12/28 12:18:20;;;;;;;10.82;8.13;;;;;;;;;;4969133;28;20089;-83
2021/12/28 12:20:52;;;;;;;11.07;8.57;;;;;;;;;;4970704;28;20051;-84
2021/12/28 12:23:20;;;;;;;11.80;7.80;;;;;;;;;;4972591;28;20141;-84
2021/12/28 12:25:50;;;;;;;9.93;7.68;;;;;;;;;;4969755;28;20114;-84
2021/12/28 12:28:19;;;;;;;9.48;8.32;;;;;;;;;;4970017;28;20126;-84
2021/12/28 12:30:45;;;;;;;9.82;7.70;;;;;;;;;;4970622;28;20065;-84
2021/12/28 12:33:12;;;;;;;12.23;8.40;;;;;;;;;;4969750;28;20039;-83
2021/12/28 12:35:55;;;;;;;13.15;8.80;;;;;;;;;;4964607;28;20125;-84
2021/12/28 12:38:24;;;;;;;10.13;8.02;;;;;;;;;;4970795;28;20474;-83
2021/12/28 12:40:59;;;;;;;10.60;8.30;;;;;;;;;;4968752;28;20042;-80
2021/12/28 12:43:27;;;;;;;10.85;8.70;;;;;;;;;;4969405;28;20051;-82
2021/12/28 12:45:54;;;;;;;12.95;8.63;;;;;;;;;;4969816;28;20120;-81
2021/12/28 12:48:29;;;;;;;12.30;8.48;;;;;;;;;;4967344;28;20458;-81
2021/12/28 12:51:15;;;;;;;10.63;8.18;;;;;;;;;;4964830;28;20421;-82
2021/12/28 12:53:42;;;;;;;11.13;8.70;;;;;;;;;;4967334;28;20134;-80
2021/12/28 12:56:12;;;;;;;10.73;8.55;;;;;;;;;;4973309;28;20435;-80
2021/12/28 12:58:40;;;;;;;11.90;8.40;;;;;;;;;;4968580;28;20641;-80
2021/12/28 13:01:06;;;;;;;11.88;8.18;;;;;;;;;;4970660;28;20070;-80
2021/12/28 13:03:35;;;;;;;12.13;8.27;;;;;;;;;;4965885;28;20128;-82
2021/12/28 13:06:01;;;;;;;11.35;8.05;;;;;;;;;;4970278;28;20501;-82
2021/12/28 13:08:27;;;;;;;11.38;8.80;;;;;;;;;;4968349;28;20053;-80
2021/12/28 13:10:53;;;;;;;13.10;8.52;;;;;;;;;;4969985;28;20038;-80
2021/12/28 13:13:19;;;;;;;11.63;9.20;;;;;;;;;;4968996;28;20484;-80
2021/12/28 13:15:45;;;;;;;11.57;9.35;;;;;;;;;;4959477;28;20097;-80
2021/12/28 13:18:11;;;;;;;11.13;8.68;;;;;;;;;;4962210;28;20066;-81
2021/12/28 13:20:37;;;;;;;13.32;8.85;;;;;;;;;;4964524;28;20046;-80
2021/12/28 13:23:08;;;;;;;13.25;9.10;;;;;;;;;;4964414;28;20097;-80
2021/12/28 13:25:40;;;;;;;8.02;5.90;;;;;;;;;;4969057;28;20097;-82
2021/12/28 13:28:07;;;;;;;8.55;5.75;;;;;;;;;;4964218;28;20433;-82
2021/12/28 13:30:34;;;;;;;5.78;5.13;;;;;;;;;;4967751;28;20051;-83
2021/12/28 13:33:01;;;;;;;6.47;4.53;;;;;;;;;;4961265;28;20499;-83
2021/12/28 13:35:28;;;;;;;5.63;4.70;;;;;;;;;;4963093;28;20583;-83
2021/12/28 13:38:00;;;;;;;5.85;4.25;;;;;;;;;;4964267;28;20387;-84
2021/12/28 13:40:26;;;;;;;6.25;4.35;;;;;;;;;;4967406;28;20569;-83
2021/12/28 13:42:52;;;;;;;4.10;3.50;;;;;;;;;;4965584;28;20066;-82
2021/12/28 13:45:33;;;;;;;7.93;3.58;;;;;;;;;;4964254;28;20054;-81
2021/12/28 13:48:00;;;;;;;9.00;3.30;;;;;;;;;;4971015;28;20049;-81
2021/12/28 13:50:26;;;;;;;6.40;3.30;;;;;;;;;;4971690;28;20051;-81
2021/12/28 13:52:57;;;;;;;10.43;3.35;;;;;;;;;;4965966;28;20058;-81
2021/12/28 13:55:28;;;;;;;7.20;3.50;;;;;;;;;;4964291;28;20119;-81
2021/12/28 13:57:54;;;;;;;8.82;2.92;;;;;;;;;;4965664;28;20507;-81
2021/12/28 14:00:22;;;;;;;8.05;2.35;;;;;;;;;;4965526;28;20043;-81
2021/12/28 14:02:59;;;;;;;7.22;2.58;;;;;;;;;;4968600;28;20065;-81
2021/12/28 14:05:25;;;;;;;10.40;2.50;;;;;;;;;;4970327;28;20054;-81
2021/12/28 14:07:51;;;;;;;13.85;2.83;;;;;;;;;;4968191;28;20078;-80
2021/12/28 14:10:19;;;;;;;15.68;3.03;;;;;;;;;;4965790;28;20509;-81
2021/12/28 14:13:00;;;;;;;16.13;3.38;;;;;;;;;;4968906;28;20145;-81
2021/12/28 14:15:26;;;;;;;17.38;3.38;;;;;;;;;;4970431;28;20057;-81
2021/12/28 14:17:52;;;;;;;19.98;3.55;;;;;;;;;;4965564;28;20051;-83
2021/12/28 14:20:26;;;;;;;19.63;3.78;;;;;;;;;;4965030;28;20406;-84
2021/12/28 14:22:52;;;;;;;14.75;3.50;;;;;;;;;;4974710;28;20054;-84